In Rescue
 
Open Full Screen Window  High Contrast Mode
July 23, 2019 12:57 AM EDT
Weather Information
Wind Direction
  ---
Wind Speed
  00 kt (0 mph)
Wind Gust
  00 kt (0 mph)
Altimeter
30.07 in
Visibility
10 SM
Temperature
16° C
61° F
Dewpoint
12° C
54° F
Humidity
77%
Sky Condition
Clear
VFR

METAR KCVX 230457Z AUTO 00000KT 10SM CLR 16/12 A3007 RMK AO2 T01610120

FAA Disclaimer: The data displayed is for advisory purposes only and is not to be used for flight planning or operations.